sensor_id;sensor_type;location;lat;lon;timestamp;temperature;humidity
16321;DHT22;8269;50.990;4.494;2022-08-18T00:00:26;17.90;99.90
16321;DHT22;8269;50.990;4.494;2022-08-18T00:03:03;17.90;99.90
16321;DHT22;8269;50.990;4.494;2022-08-18T00:05:29;17.90;99.90
16321;DHT22;8269;50.990;4.494;2022-08-18T00:07:56;18.00;99.90
16321;DHT22;8269;50.990;4.494;2022-08-18T00:10:22;18.00;99.90
16321;DHT22;8269;50.990;4.494;2022-08-18T00:12:47;17.90;99.90
16321;DHT22;8269;50.990;4.494;2022-08-18T00:15:15;17.90;99.90
16321;DHT22;8269;50.990;4.494;2022-08-18T00:17:42;18.00;99.90
16321;DHT22;8269;50.990;4.494;2022-08-18T00:20:11;18.00;99.90
16321;DHT22;8269;50.990;4.494;2022-08-18T00:22:37;18.00;99.90
16321;DHT22;8269;50.990;4.494;2022-08-18T00:25:05;18.00;99.90
16321;DHT22;8269;50.990;4.494;2022-08-18T00:27:34;17.90;99.90
16321;DHT22;8269;50.990;4.494;2022-08-18T00:30:03;17.70;99.90
16321;DHT22;8269;50.990;4.494;2022-08-18T00:32:39;17.60;99.90
16321;DHT22;8269;50.990;4.494;2022-08-18T00:35:10;17.60;99.90
16321;DHT22;8269;50.990;4.494;2022-08-18T00:37:41;17.50;99.90
16321;DHT22;8269;50.990;4.494;2022-08-18T00:40:10;17.50;99.90
16321;DHT22;8269;50.990;4.494;2022-08-18T00:42:45;17.60;99.90
16321;DHT22;8269;50.990;4.494;2022-08-18T00:45:15;17.60;99.90
16321;DHT22;8269;50.990;4.494;2022-08-18T00:47:41;17.50;99.90
16321;DHT22;8269;50.990;4.494;2022-08-18T00:50:09;17.50;99.90
16321;DHT22;8269;50.990;4.494;2022-08-18T00:52:35;17.50;99.90
16321;DHT22;8269;50.990;4.494;2022-08-18T00:55:02;17.30;99.90
16321;DHT22;8269;50.990;4.494;2022-08-18T00:57:29;17.50;99.90
16321;DHT22;8269;50.990;4.494;2022-08-18T01:00:03;17.50;99.90
16321;DHT22;8269;50.990;4.494;2022-08-18T01:02:44;17.40;99.90
16321;DHT22;8269;50.990;4.494;2022-08-18T01:05:15;17.50;99.90
16321;DHT22;8269;50.990;4.494;2022-08-18T01:07:44;17.50;99.90
16321;DHT22;8269;50.990;4.494;2022-08-18T01:10:15;17.50;99.90
16321;DHT22;8269;50.990;4.494;2022-08-18T01:12:47;17.60;99.90
16321;DHT22;8269;50.990;4.494;2022-08-18T01:15:14;17.70;99.90
16321;DHT22;8269;50.990;4.494;2022-08-18T01:17:41;17.70;99.90
16321;DHT22;8269;50.990;4.494;2022-08-18T01:23:52;17.80;99.90
16321;DHT22;8269;50.990;4.494;2022-08-18T01:26:19;17.80;99.90
16321;DHT22;8269;50.990;4.494;2022-08-18T01:28:46;17.70;99.90
16321;DHT22;8269;50.990;4.494;2022-08-18T01:31:32;17.70;99.90
16321;DHT22;8269;50.990;4.494;2022-08-18T01:34:01;17.80;99.90
16321;DHT22;8269;50.990;4.494;2022-08-18T01:36:28;17.70;99.90
16321;DHT22;8269;50.990;4.494;2022-08-18T01:38:55;17.80;99.90
16321;DHT22;8269;50.990;4.494;2022-08-18T01:41:22;17.90;99.90
16321;DHT22;8269;50.990;4.494;2022-08-18T01:43:49;17.90;99.90
16321;DHT22;8269;50.990;4.494;2022-08-18T01:46:20;18.00;99.90
16321;DHT22;8269;50.990;4.494;2022-08-18T01:48:47;17.80;99.90
16321;DHT22;8269;50.990;4.494;2022-08-18T01:51:14;17.70;99.90
16321;DHT22;8269;50.990;4.494;2022-08-18T01:53:40;17.60;99.90
16321;DHT22;8269;50.990;4.494;2022-08-18T01:56:07;17.80;99.90
16321;DHT22;8269;50.990;4.494;2022-08-18T01:58:34;17.90;99.90
16321;DHT22;8269;50.990;4.494;2022-08-18T02:01:01;17.80;99.90
16321;DHT22;8269;50.990;4.494;2022-08-18T02:03:37;17.80;99.90
16321;DHT22;8269;50.990;4.494;2022-08-18T02:06:08;17.80;99.90
16321;DHT22;8269;50.990;4.494;2022-08-18T02:08:35;17.80;99.90
16321;DHT22;8269;50.990;4.494;2022-08-18T02:11:01;17.80;99.90
16321;DHT22;8269;50.990;4.494;2022-08-18T02:13:28;17.80;99.90
16321;DHT22;8269;50.990;4.494;2022-08-18T02:15:53;17.70;99.90
16321;DHT22;8269;50.990;4.494;2022-08-18T02:18:23;17.80;99.90
16321;DHT22;8269;50.990;4.494;2022-08-18T02:20:49;17.80;99.90
16321;DHT22;8269;50.990;4.494;2022-08-18T02:23:14;17.80;99.90
16321;DHT22;8269;50.990;4.494;2022-08-18T02:25:43;17.80;99.90
16321;DHT22;8269;50.990;4.494;2022-08-18T02:28:09;17.80;99.90
16321;DHT22;8269;50.990;4.494;2022-08-18T02:30:35;17.70;99.90
16321;DHT22;8269;50.990;4.494;2022-08-18T02:33:08;17.70;99.90
16321;DHT22;8269;50.990;4.494;2022-08-18T02:35:35;17.80;99.90
16321;DHT22;8269;50.990;4.494;2022-08-18T02:38:04;17.90;99.90
16321;DHT22;8269;50.990;4.494;2022-08-18T02:40:30;17.90;99.90
16321;DHT22;8269;50.990;4.494;2022-08-18T02:43:05;17.90;99.90
16321;DHT22;8269;50.990;4.494;2022-08-18T02:45:31;17.90;99.90
16321;DHT22;8269;50.990;4.494;2022-08-18T02:47:57;17.80;99.90
16321;DHT22;8269;50.990;4.494;2022-08-18T02:50:23;17.90;99.90
16321;DHT22;8269;50.990;4.494;2022-08-18T02:52:49;17.90;99.90
16321;DHT22;8269;50.990;4.494;2022-08-18T02:55:15;17.80;99.90
16321;DHT22;8269;50.990;4.494;2022-08-18T02:57:43;17.80;99.90
16321;DHT22;8269;50.990;4.494;2022-08-18T03:00:11;17.70;99.90
16321;DHT22;8269;50.990;4.494;2022-08-18T03:02:38;17.70;99.90
16321;DHT22;8269;50.990;4.494;2022-08-18T03:05:05;17.70;99.90
16321;DHT22;8269;50.990;4.494;2022-08-18T03:07:31;17.80;99.90
16321;DHT22;8269;50.990;4.494;2022-08-18T03:09:57;17.90;99.90
16321;DHT22;8269;50.990;4.494;2022-08-18T03:12:23;18.00;99.90
16321;DHT22;8269;50.990;4.494;2022-08-18T03:14:49;18.00;99.90
16321;DHT22;8269;50.990;4.494;2022-08-18T03:17:15;18.00;99.90
16321;DHT22;8269;50.990;4.494;2022-08-18T03:19:41;18.00;99.90
16321;DHT22;8269;50.990;4.494;2022-08-18T03:22:09;18.00;99.90
16321;DHT22;8269;50.990;4.494;2022-08-18T03:24:35;18.00;99.90
16321;DHT22;8269;50.990;4.494;2022-08-18T03:27:04;17.90;99.90
16321;DHT22;8269;50.990;4.494;2022-08-18T03:29:31;17.90;99.90
16321;DHT22;8269;50.990;4.494;2022-08-18T03:31:57;17.90;99.90
16321;DHT22;8269;50.990;4.494;2022-08-18T03:34:23;17.90;99.90
16321;DHT22;8269;50.990;4.494;2022-08-18T03:36:49;17.90;99.90
16321;DHT22;8269;50.990;4.494;2022-08-18T03:39:16;17.80;99.90
16321;DHT22;8269;50.990;4.494;2022-08-18T03:41:43;17.90;99.90
16321;DHT22;8269;50.990;4.494;2022-08-18T03:44:10;17.90;99.90
16321;DHT22;8269;50.990;4.494;2022-08-18T03:46:36;17.80;99.90
16321;DHT22;8269;50.990;4.494;2022-08-18T03:49:02;17.80;99.90
16321;DHT22;8269;50.990;4.494;2022-08-18T03:51:30;17.80;99.90
16321;DHT22;8269;50.990;4.494;2022-08-18T03:53:59;17.80;99.90
16321;DHT22;8269;50.990;4.494;2022-08-18T03:56:33;17.80;99.90
16321;DHT22;8269;50.990;4.494;2022-08-18T03:59:03;17.80;99.90
16321;DHT22;8269;50.990;4.494;2022-08-18T04:01:32;17.80;99.90
16321;DHT22;8269;50.990;4.494;2022-08-18T04:04:03;17.90;99.90
16321;DHT22;8269;50.990;4.494;2022-08-18T04:06:33;17.90;99.90
16321;DHT22;8269;50.990;4.494;2022-08-18T04:09:01;18.00;99.90
16321;DHT22;8269;50.990;4.494;2022-08-18T04:11:31;18.00;99.90
16321;DHT22;8269;50.990;4.494;2022-08-18T04:13:57;18.00;99.90
16321;DHT22;8269;50.990;4.494;2022-08-18T04:16:28;18.00;99.90
16321;DHT22;8269;50.990;4.494;2022-08-18T04:18:55;18.00;99.90
16321;DHT22;8269;50.990;4.494;2022-08-18T04:21:24;18.00;99.90
16321;DHT22;8269;50.990;4.494;2022-08-18T04:23:49;18.00;99.90
16321;DHT22;8269;50.990;4.494;2022-08-18T04:26:15;18.00;99.90
16321;DHT22;8269;50.990;4.494;2022-08-18T04:28:42;18.00;99.90
16321;DHT22;8269;50.990;4.494;2022-08-18T04:31:12;18.00;99.90
16321;DHT22;8269;50.990;4.494;2022-08-18T04:33:39;17.90;99.90
16321;DHT22;8269;50.990;4.494;2022-08-18T04:36:10;17.80;99.90
16321;DHT22;8269;50.990;4.494;2022-08-18T04:38:37;17.90;99.90
16321;DHT22;8269;50.990;4.494;2022-08-18T04:41:03;17.80;99.90
16321;DHT22;8269;50.990;4.494;2022-08-18T04:43:30;17.80;99.90
16321;DHT22;8269;50.990;4.494;2022-08-18T04:45:57;17.70;99.90
16321;DHT22;8269;50.990;4.494;2022-08-18T04:48:31;17.60;99.90
16321;DHT22;8269;50.990;4.494;2022-08-18T04:51:14;17.60;99.90
16321;DHT22;8269;50.990;4.494;2022-08-18T04:53:42;17.60;99.90
16321;DHT22;8269;50.990;4.494;2022-08-18T04:56:28;17.60;99.90
16321;DHT22;8269;50.990;4.494;2022-08-18T04:58:57;17.70;99.90
16321;DHT22;8269;50.990;4.494;2022-08-18T05:01:26;17.60;99.90
16321;DHT22;8269;50.990;4.494;2022-08-18T05:03:53;17.80;99.90
16321;DHT22;8269;50.990;4.494;2022-08-18T05:06:20;17.70;99.90
16321;DHT22;8269;50.990;4.494;2022-08-18T05:08:53;17.60;99.90
16321;DHT22;8269;50.990;4.494;2022-08-18T05:11:19;17.70;99.90
16321;DHT22;8269;50.990;4.494;2022-08-18T05:13:46;17.70;99.90
16321;DHT22;8269;50.990;4.494;2022-08-18T05:16:12;17.70;99.90
16321;DHT22;8269;50.990;4.494;2022-08-18T05:18:38;17.70;99.90
16321;DHT22;8269;50.990;4.494;2022-08-18T05:21:06;17.60;99.90
16321;DHT22;8269;50.990;4.494;2022-08-18T05:23:33;17.70;99.90
16321;DHT22;8269;50.990;4.494;2022-08-18T05:26:02;17.60;99.90
16321;DHT22;8269;50.990;4.494;2022-08-18T05:28:31;17.50;99.90
16321;DHT22;8269;50.990;4.494;2022-08-18T05:30:57;17.60;99.90
16321;DHT22;8269;50.990;4.494;2022-08-18T05:33:23;17.50;99.90
16321;DHT22;8269;50.990;4.494;2022-08-18T05:36:01;17.50;99.90
16321;DHT22;8269;50.990;4.494;2022-08-18T05:41:38;17.60;99.90
16321;DHT22;8269;50.990;4.494;2022-08-18T05:44:07;17.70;99.90
16321;DHT22;8269;50.990;4.494;2022-08-18T05:49:02;17.70;99.90
16321;DHT22;8269;50.990;4.494;2022-08-18T05:51:32;17.70;99.90
16321;DHT22;8269;50.990;4.494;2022-08-18T05:54:01;17.80;99.90
16321;DHT22;8269;50.990;4.494;2022-08-18T05:56:46;17.90;99.90
16321;DHT22;8269;50.990;4.494;2022-08-18T05:59:36;17.90;99.90
16321;DHT22;8269;50.990;4.494;2022-08-18T06:04:52;18.00;99.90
16321;DHT22;8269;50.990;4.494;2022-08-18T06:07:36;18.10;99.90
16321;DHT22;8269;50.990;4.494;2022-08-18T06:10:07;18.20;99.90
16321;DHT22;8269;50.990;4.494;2022-08-18T06:12:39;18.20;99.90
16321;DHT22;8269;50.990;4.494;2022-08-18T06:18:02;18.30;99.90
16321;DHT22;8269;50.990;4.494;2022-08-18T06:23:43;18.40;99.90
16321;DHT22;8269;50.990;4.494;2022-08-18T06:35:28;18.70;99.90
16321;DHT22;8269;50.990;4.494;2022-08-18T06:40:48;18.50;99.90
16321;DHT22;8269;50.990;4.494;2022-08-18T06:43:15;18.60;99.90
16321;DHT22;8269;50.990;4.494;2022-08-18T06:45:45;18.70;99.90
16321;DHT22;8269;50.990;4.494;2022-08-18T06:48:30;18.70;99.90
16321;DHT22;8269;50.990;4.494;2022-08-18T06:51:00;18.80;99.90
16321;DHT22;8269;50.990;4.494;2022-08-18T06:53:49;18.90;99.90
16321;DHT22;8269;50.990;4.494;2022-08-18T06:58:46;18.80;99.90
16321;DHT22;8269;50.990;4.494;2022-08-18T07:01:12;19.00;99.90
16321;DHT22;8269;50.990;4.494;2022-08-18T07:08:46;19.10;99.90
16321;DHT22;8269;50.990;4.494;2022-08-18T07:11:19;19.30;99.90
16321;DHT22;8269;50.990;4.494;2022-08-18T07:13:47;19.50;99.90
16321;DHT22;8269;50.990;4.494;2022-08-18T07:16:25;19.70;99.90
16321;DHT22;8269;50.990;4.494;2022-08-18T07:19:06;19.90;99.90
16321;DHT22;8269;50.990;4.494;2022-08-18T07:21:34;19.90;99.90
16321;DHT22;8269;50.990;4.494;2022-08-18T07:29:25;20.20;99.90
16321;DHT22;8269;50.990;4.494;2022-08-18T07:31:53;20.60;99.90
16321;DHT22;8269;50.990;4.494;2022-08-18T07:34:32;20.60;99.90
16321;DHT22;8269;50.990;4.494;2022-08-18T07:37:05;20.70;99.90
16321;DHT22;8269;50.990;4.494;2022-08-18T07:39:42;21.10;99.90
16321;DHT22;8269;50.990;4.494;2022-08-18T07:42:22;21.40;99.90
16321;DHT22;8269;50.990;4.494;2022-08-18T07:45:13;21.40;99.90
16321;DHT22;8269;50.990;4.494;2022-08-18T07:50:37;21.90;99.90
16321;DHT22;8269;50.990;4.494;2022-08-18T07:53:12;22.50;99.90
16321;DHT22;8269;50.990;4.494;2022-08-18T07:55:40;22.90;97.30
16321;DHT22;8269;50.990;4.494;2022-08-18T08:01:00;23.70;95.30
16321;DHT22;8269;50.990;4.494;2022-08-18T08:06:29;24.00;92.70
16321;DHT22;8269;50.990;4.494;2022-08-18T08:14:48;24.50;91.20
16321;DHT22;8269;50.990;4.494;2022-08-18T08:17:40;24.70;90.50
16321;DHT22;8269;50.990;4.494;2022-08-18T08:23:21;25.10;88.60
16321;DHT22;8269;50.990;4.494;2022-08-18T08:25:54;25.70;87.90
16321;DHT22;8269;50.990;4.494;2022-08-18T08:31:04;26.20;80.00
16321;DHT22;8269;50.990;4.494;2022-08-18T08:33:39;26.30;79.00
16321;DHT22;8269;50.990;4.494;2022-08-18T08:38:58;25.90;77.70
16321;DHT22;8269;50.990;4.494;2022-08-18T08:41:43;26.10;76.60
16321;DHT22;8269;50.990;4.494;2022-08-18T08:44:30;25.70;77.20
16321;DHT22;8269;50.990;4.494;2022-08-18T08:50:10;25.60;78.10
16321;DHT22;8269;50.990;4.494;2022-08-18T08:52:49;25.70;78.80
16321;DHT22;8269;50.990;4.494;2022-08-18T08:55:23;25.90;76.00
16321;DHT22;8269;50.990;4.494;2022-08-18T09:00:42;25.50;77.90
16321;DHT22;8269;50.990;4.494;2022-08-18T09:03:28;25.60;75.20
16321;DHT22;8269;50.990;4.494;2022-08-18T09:16:43;26.30;70.10
16321;DHT22;8269;50.990;4.494;2022-08-18T09:24:48;24.30;79.40
16321;DHT22;8269;50.990;4.494;2022-08-18T09:27:41;24.00;80.80
16321;DHT22;8269;50.990;4.494;2022-08-18T09:38:55;25.20;75.00
16321;DHT22;8269;50.990;4.494;2022-08-18T09:41:54;25.30;74.90
16321;DHT22;8269;50.990;4.494;2022-08-18T09:47:06;25.20;76.70
16321;DHT22;8269;50.990;4.494;2022-08-18T09:49:47;25.20;76.40
16321;DHT22;8269;50.990;4.494;2022-08-18T09:55:08;25.30;76.10
16321;DHT22;8269;50.990;4.494;2022-08-18T10:06:42;25.80;73.40
16321;DHT22;8269;50.990;4.494;2022-08-18T10:12:35;25.30;73.80
16321;DHT22;8269;50.990;4.494;2022-08-18T10:29:00;26.00;71.90
16321;DHT22;8269;50.990;4.494;2022-08-18T10:31:28;26.10;70.80
16321;DHT22;8269;50.990;4.494;2022-08-18T10:34:00;26.20;70.10
16321;DHT22;8269;50.990;4.494;2022-08-18T10:39:05;26.30;68.90
16321;DHT22;8269;50.990;4.494;2022-08-18T10:41:32;26.30;68.40
16321;DHT22;8269;50.990;4.494;2022-08-18T10:44:01;26.20;68.80
16321;DHT22;8269;50.990;4.494;2022-08-18T10:46:32;26.10;69.40
16321;DHT22;8269;50.990;4.494;2022-08-18T10:49:22;26.00;69.70
16321;DHT22;8269;50.990;4.494;2022-08-18T10:54:22;25.70;70.80
16321;DHT22;8269;50.990;4.494;2022-08-18T10:56:54;25.70;70.80
16321;DHT22;8269;50.990;4.494;2022-08-18T11:00:01;25.70;72.00
16321;DHT22;8269;50.990;4.494;2022-08-18T11:05:10;26.00;70.90
16321;DHT22;8269;50.990;4.494;2022-08-18T11:07:37;26.10;70.70
16321;DHT22;8269;50.990;4.494;2022-08-18T11:10:22;26.40;69.60
16321;DHT22;8269;50.990;4.494;2022-08-18T11:13:28;26.30;69.20
16321;DHT22;8269;50.990;4.494;2022-08-18T11:18:48;26.00;69.60
16321;DHT22;8269;50.990;4.494;2022-08-18T11:24:05;25.80;70.90
16321;DHT22;8269;50.990;4.494;2022-08-18T11:26:34;26.00;70.90
16321;DHT22;8269;50.990;4.494;2022-08-18T11:31:42;26.30;70.30
16321;DHT22;8269;50.990;4.494;2022-08-18T11:34:13;26.60;68.80
16321;DHT22;8269;50.990;4.494;2022-08-18T11:36:39;26.60;67.90
16321;DHT22;8269;50.990;4.494;2022-08-18T11:39:08;26.80;67.60
16321;DHT22;8269;50.990;4.494;2022-08-18T11:41:35;27.00;67.30
16321;DHT22;8269;50.990;4.494;2022-08-18T11:44:03;26.90;66.80
16321;DHT22;8269;50.990;4.494;2022-08-18T11:46:38;26.50;67.00
16321;DHT22;8269;50.990;4.494;2022-08-18T11:49:20;26.60;67.30
16321;DHT22;8269;50.990;4.494;2022-08-18T11:52:02;26.90;66.60
16321;DHT22;8269;50.990;4.494;2022-08-18T11:54:42;27.00;65.60
16321;DHT22;8269;50.990;4.494;2022-08-18T12:05:41;26.40;66.00
16321;DHT22;8269;50.990;4.494;2022-08-18T12:08:18;26.40;65.50
16321;DHT22;8269;50.990;4.494;2022-08-18T12:10:46;26.30;65.40
16321;DHT22;8269;50.990;4.494;2022-08-18T12:13:21;26.30;65.00
16321;DHT22;8269;50.990;4.494;2022-08-18T12:16:11;26.40;65.50
16321;DHT22;8269;50.990;4.494;2022-08-18T12:18:37;26.50;65.50
16321;DHT22;8269;50.990;4.494;2022-08-18T12:21:03;26.40;66.40
16321;DHT22;8269;50.990;4.494;2022-08-18T12:23:33;26.40;65.70
16321;DHT22;8269;50.990;4.494;2022-08-18T12:25:59;26.30;65.50
16321;DHT22;8269;50.990;4.494;2022-08-18T12:28:25;26.20;66.10
16321;DHT22;8269;50.990;4.494;2022-08-18T12:30:51;26.20;67.10
16321;DHT22;8269;50.990;4.494;2022-08-18T12:33:17;26.20;66.30
16321;DHT22;8269;50.990;4.494;2022-08-18T12:35:43;26.30;66.50
16321;DHT22;8269;50.990;4.494;2022-08-18T12:38:09;26.50;66.20
16321;DHT22;8269;50.990;4.494;2022-08-18T12:40:36;26.60;66.00
16321;DHT22;8269;50.990;4.494;2022-08-18T12:43:03;26.70;65.50
16321;DHT22;8269;50.990;4.494;2022-08-18T12:45:29;26.70;64.90
16321;DHT22;8269;50.990;4.494;2022-08-18T12:47:55;26.30;65.60
16321;DHT22;8269;50.990;4.494;2022-08-18T12:50:21;26.30;66.20
16321;DHT22;8269;50.990;4.494;2022-08-18T12:52:47;26.30;66.60
16321;DHT22;8269;50.990;4.494;2022-08-18T12:55:13;26.30;66.80
16321;DHT22;8269;50.990;4.494;2022-08-18T12:57:43;26.40;66.40
16321;DHT22;8269;50.990;4.494;2022-08-18T13:00:09;26.40;65.60
16321;DHT22;8269;50.990;4.494;2022-08-18T13:02:36;26.40;65.80
16321;DHT22;8269;50.990;4.494;2022-08-18T13:05:02;26.60;65.70
16321;DHT22;8269;50.990;4.494;2022-08-18T13:07:28;26.60;64.70
16321;DHT22;8269;50.990;4.494;2022-08-18T13:09:55;26.70;65.40
16321;DHT22;8269;50.990;4.494;2022-08-18T13:12:25;26.50;64.90
16321;DHT22;8269;50.990;4.494;2022-08-18T13:14:51;26.40;66.60
16321;DHT22;8269;50.990;4.494;2022-08-18T13:17:19;26.40;65.90
16321;DHT22;8269;50.990;4.494;2022-08-18T13:19:45;26.40;65.70
16321;DHT22;8269;50.990;4.494;2022-08-18T13:22:11;26.40;65.90
16321;DHT22;8269;50.990;4.494;2022-08-18T13:24:37;26.60;65.40
16321;DHT22;8269;50.990;4.494;2022-08-18T13:27:05;26.70;64.80
16321;DHT22;8269;50.990;4.494;2022-08-18T13:29:30;26.90;64.30
16321;DHT22;8269;50.990;4.494;2022-08-18T13:31:56;27.10;62.50
16321;DHT22;8269;50.990;4.494;2022-08-18T13:34:26;27.20;62.80
16321;DHT22;8269;50.990;4.494;2022-08-18T13:36:53;27.10;61.50
16321;DHT22;8269;50.990;4.494;2022-08-18T13:39:22;27.20;61.40
16321;DHT22;8269;50.990;4.494;2022-08-18T13:41:50;27.20;61.40
16321;DHT22;8269;50.990;4.494;2022-08-18T13:44:17;27.30;61.70
16321;DHT22;8269;50.990;4.494;2022-08-18T13:46:45;27.20;62.00
16321;DHT22;8269;50.990;4.494;2022-08-18T13:51:39;26.90;62.10
16321;DHT22;8269;50.990;4.494;2022-08-18T13:54:04;26.90;62.70
16321;DHT22;8269;50.990;4.494;2022-08-18T13:56:30;26.90;61.20
16321;DHT22;8269;50.990;4.494;2022-08-18T13:58:55;26.90;62.00
16321;DHT22;8269;50.990;4.494;2022-08-18T14:01:21;27.00;61.90
16321;DHT22;8269;50.990;4.494;2022-08-18T14:03:47;27.00;60.60
16321;DHT22;8269;50.990;4.494;2022-08-18T14:06:12;27.00;66.00
16321;DHT22;8269;50.990;4.494;2022-08-18T14:08:39;26.90;66.10
16321;DHT22;8269;50.990;4.494;2022-08-18T14:11:05;26.90;66.90
16321;DHT22;8269;50.990;4.494;2022-08-18T14:13:30;26.90;67.50
16321;DHT22;8269;50.990;4.494;2022-08-18T14:15:58;27.00;67.20
16321;DHT22;8269;50.990;4.494;2022-08-18T14:18:26;26.90;67.50
16321;DHT22;8269;50.990;4.494;2022-08-18T14:20:54;27.00;67.60
16321;DHT22;8269;50.990;4.494;2022-08-18T14:23:38;26.90;68.70
16321;DHT22;8269;50.990;4.494;2022-08-18T14:26:22;27.00;69.40
16321;DHT22;8269;50.990;4.494;2022-08-18T14:29:06;26.90;69.40
16321;DHT22;8269;50.990;4.494;2022-08-18T14:31:33;27.00;70.60
16321;DHT22;8269;50.990;4.494;2022-08-18T14:33:59;27.30;70.20
16321;DHT22;8269;50.990;4.494;2022-08-18T14:36:25;27.30;60.40
16321;DHT22;8269;50.990;4.494;2022-08-18T14:38:51;27.40;60.50
16321;DHT22;8269;50.990;4.494;2022-08-18T14:41:17;27.50;59.60
16321;DHT22;8269;50.990;4.494;2022-08-18T14:43:43;27.30;58.30
16321;DHT22;8269;50.990;4.494;2022-08-18T14:46:10;27.20;58.30
16321;DHT22;8269;50.990;4.494;2022-08-18T14:48:36;27.20;58.30
16321;DHT22;8269;50.990;4.494;2022-08-18T14:51:02;27.20;56.60
16321;DHT22;8269;50.990;4.494;2022-08-18T14:53:30;27.10;56.20
16321;DHT22;8269;50.990;4.494;2022-08-18T14:55:58;27.00;57.70
16321;DHT22;8269;50.990;4.494;2022-08-18T14:58:28;27.00;58.80
16321;DHT22;8269;50.990;4.494;2022-08-18T15:01:02;27.20;58.90
16321;DHT22;8269;50.990;4.494;2022-08-18T15:03:30;27.20;58.60
16321;DHT22;8269;50.990;4.494;2022-08-18T15:05:58;27.20;58.60
16321;DHT22;8269;50.990;4.494;2022-08-18T15:08:28;27.30;58.90
16321;DHT22;8269;50.990;4.494;2022-08-18T15:10:54;27.40;59.30
16321;DHT22;8269;50.990;4.494;2022-08-18T15:13:24;27.50;59.20
16321;DHT22;8269;50.990;4.494;2022-08-18T15:15:50;27.70;58.60
16321;DHT22;8269;50.990;4.494;2022-08-18T15:18:16;27.70;58.40
16321;DHT22;8269;50.990;4.494;2022-08-18T15:20:43;27.50;57.70
16321;DHT22;8269;50.990;4.494;2022-08-18T15:23:27;27.40;59.00
16321;DHT22;8269;50.990;4.494;2022-08-18T15:26:12;27.40;58.60
16321;DHT22;8269;50.990;4.494;2022-08-18T15:28:42;27.40;59.40
16321;DHT22;8269;50.990;4.494;2022-08-18T15:31:07;27.50;60.00
16321;DHT22;8269;50.990;4.494;2022-08-18T15:33:33;27.60;60.30
16321;DHT22;8269;50.990;4.494;2022-08-18T15:36:00;27.50;60.10
16321;DHT22;8269;50.990;4.494;2022-08-18T15:38:29;27.40;60.50
16321;DHT22;8269;50.990;4.494;2022-08-18T15:40:58;27.30;60.90
16321;DHT22;8269;50.990;4.494;2022-08-18T15:43:26;27.30;61.10
16321;DHT22;8269;50.990;4.494;2022-08-18T15:45:52;27.40;61.30
16321;DHT22;8269;50.990;4.494;2022-08-18T15:48:20;27.30;60.90
16321;DHT22;8269;50.990;4.494;2022-08-18T15:50:48;27.30;61.00
16321;DHT22;8269;50.990;4.494;2022-08-18T15:53:17;27.20;61.30
16321;DHT22;8269;50.990;4.494;2022-08-18T15:55:44;27.10;60.80
16321;DHT22;8269;50.990;4.494;2022-08-18T15:58:10;27.10;61.50
16321;DHT22;8269;50.990;4.494;2022-08-18T16:00:40;27.10;61.00
16321;DHT22;8269;50.990;4.494;2022-08-18T16:03:08;27.00;61.30
16321;DHT22;8269;50.990;4.494;2022-08-18T16:05:37;27.00;61.20
16321;DHT22;8269;50.990;4.494;2022-08-18T16:08:06;27.10;60.80
16321;DHT22;8269;50.990;4.494;2022-08-18T16:10:34;27.10;60.70
16321;DHT22;8269;50.990;4.494;2022-08-18T16:13:01;27.40;61.10
16321;DHT22;8269;50.990;4.494;2022-08-18T16:15:32;27.10;60.30
16321;DHT22;8269;50.990;4.494;2022-08-18T16:17:58;26.90;60.80
16321;DHT22;8269;50.990;4.494;2022-08-18T16:20:25;27.00;60.50
16321;DHT22;8269;50.990;4.494;2022-08-18T16:22:52;27.10;60.10
16321;DHT22;8269;50.990;4.494;2022-08-18T16:25:18;26.90;60.80
16321;DHT22;8269;50.990;4.494;2022-08-18T16:27:44;26.90;60.60
16321;DHT22;8269;50.990;4.494;2022-08-18T16:30:15;26.80;61.50
16321;DHT22;8269;50.990;4.494;2022-08-18T16:32:41;26.70;61.80
16321;DHT22;8269;50.990;4.494;2022-08-18T16:35:08;26.60;61.20
16321;DHT22;8269;50.990;4.494;2022-08-18T16:37:34;26.70;60.50
16321;DHT22;8269;50.990;4.494;2022-08-18T16:40:00;26.60;60.30
16321;DHT22;8269;50.990;4.494;2022-08-18T16:42:25;26.60;60.60
16321;DHT22;8269;50.990;4.494;2022-08-18T16:44:59;26.60;60.40
16321;DHT22;8269;50.990;4.494;2022-08-18T16:47:25;26.50;60.30
16321;DHT22;8269;50.990;4.494;2022-08-18T16:49:51;26.50;60.70
16321;DHT22;8269;50.990;4.494;2022-08-18T16:52:18;26.40;60.50
16321;DHT22;8269;50.990;4.494;2022-08-18T16:54:45;26.30;61.00
16321;DHT22;8269;50.990;4.494;2022-08-18T16:57:11;26.30;61.30
16321;DHT22;8269;50.990;4.494;2022-08-18T16:59:38;26.30;61.30
16321;DHT22;8269;50.990;4.494;2022-08-18T17:02:23;26.30;61.20
16321;DHT22;8269;50.990;4.494;2022-08-18T17:05:08;26.40;60.00
16321;DHT22;8269;50.990;4.494;2022-08-18T17:07:35;26.20;59.70
16321;DHT22;8269;50.990;4.494;2022-08-18T17:10:02;26.20;60.50
16321;DHT22;8269;50.990;4.494;2022-08-18T17:12:28;26.20;61.30
16321;DHT22;8269;50.990;4.494;2022-08-18T17:14:54;26.20;61.30
16321;DHT22;8269;50.990;4.494;2022-08-18T17:17:20;26.10;61.90
16321;DHT22;8269;50.990;4.494;2022-08-18T17:19:47;26.00;62.20
16321;DHT22;8269;50.990;4.494;2022-08-18T17:22:13;26.00;62.40
16321;DHT22;8269;50.990;4.494;2022-08-18T17:24:40;26.00;62.30
16321;DHT22;8269;50.990;4.494;2022-08-18T17:27:16;26.10;62.50
16321;DHT22;8269;50.990;4.494;2022-08-18T17:29:52;26.00;62.50
16321;DHT22;8269;50.990;4.494;2022-08-18T17:32:22;25.90;63.60
16321;DHT22;8269;50.990;4.494;2022-08-18T17:34:57;25.80;64.50
16321;DHT22;8269;50.990;4.494;2022-08-18T17:37:25;25.80;65.50
16321;DHT22;8269;50.990;4.494;2022-08-18T17:39:57;25.80;65.70
16321;DHT22;8269;50.990;4.494;2022-08-18T17:42:29;25.80;66.00
16321;DHT22;8269;50.990;4.494;2022-08-18T17:45:03;25.80;66.70
16321;DHT22;8269;50.990;4.494;2022-08-18T17:47:31;25.70;67.60
16321;DHT22;8269;50.990;4.494;2022-08-18T17:52:49;25.50;67.60
16321;DHT22;8269;50.990;4.494;2022-08-18T17:55:23;25.50;68.70
16321;DHT22;8269;50.990;4.494;2022-08-18T17:58:03;25.50;68.90
16321;DHT22;8269;50.990;4.494;2022-08-18T18:00:31;25.40;69.20
16321;DHT22;8269;50.990;4.494;2022-08-18T18:02:58;25.30;69.50
16321;DHT22;8269;50.990;4.494;2022-08-18T18:05:36;25.20;69.50
16321;DHT22;8269;50.990;4.494;2022-08-18T18:08:04;25.10;70.00
16321;DHT22;8269;50.990;4.494;2022-08-18T18:10:37;25.10;70.20
16321;DHT22;8269;50.990;4.494;2022-08-18T18:15:54;24.90;70.50
16321;DHT22;8269;50.990;4.494;2022-08-18T18:23:30;24.80;71.80
16321;DHT22;8269;50.990;4.494;2022-08-18T18:25:57;24.80;72.00
16321;DHT22;8269;50.990;4.494;2022-08-18T18:28:31;24.70;72.20
16321;DHT22;8269;50.990;4.494;2022-08-18T18:31:16;24.70;72.70
16321;DHT22;8269;50.990;4.494;2022-08-18T18:33:44;24.60;73.20
16321;DHT22;8269;50.990;4.494;2022-08-18T18:36:10;24.50;73.90
16321;DHT22;8269;50.990;4.494;2022-08-18T18:38:38;24.50;74.40
16321;DHT22;8269;50.990;4.494;2022-08-18T18:43:40;24.30;75.60
16321;DHT22;8269;50.990;4.494;2022-08-18T18:46:24;24.30;75.90
16321;DHT22;8269;50.990;4.494;2022-08-18T18:49:24;24.20;76.20
16321;DHT22;8269;50.990;4.494;2022-08-18T18:52:08;24.20;76.80